Weather observations for the past three days for
Falfurrias, Brooks County Airport
Imperial (Metric)
Date Time (cdt) Wind (mph) Vis. (mi.) Weather Sky Cond. Temperature (ºF) Relative Humidity Wind Chill (°F) Heat Index (°F) Pressure Precipitation (in)
Air Dwpt 6 hour altimeter (in) sea level (mb) 1 hr 3 hr 6 hr
Max. Min.
08 10:55 E 7 10.00 A Few Clouds FEW008 74.5 72.1 92% 29.87 0.0
08 10:35 E 7 10.00 A Few Clouds FEW007 72.7 71.6 96% 29.87 0.0
08 10:15 NE 7 10.00 Light Rain SCT007 71.1 71.1 100% 29.87 0.0
08 09:55 NE 5 10.00 Mostly Cloudy BKN006 70.5 70.5 100% 29.88 0.0
08 09:35 NE 8 10.00 NULL NULL 69.3 69.3 100% 29.88 0.0
08 09:15 N 9 10.00 NULL NULL 69.3 69.3 100% 29.88 0.0
08 08:55 NE 9 10.00 NULL NULL 69.6 69.6 100% 29.87 0.0
08 08:35 NE 12 8.00 Light Rain NULL 69.8 69.8 100% 29.88 0.0
08 08:15 N 13 10.00 NULL NULL 70 70 100% 29.88 0.0
08 07:55 NE 12 10.00 NULL NULL 69.8 69.8 100% 29.88 0.0
08 07:35 N 12 10.00 NULL NULL 69.4 69.4 100% 29.87 0.0
08 07:15 N 8 4.00 Fog/Mist NULL 69.1 69.1 100% 29.87 0.0
08 06:55 N 8 4.00 Fog/Mist NULL 68.9 68.9 100% 29.87 0.0
08 06:35 N 6 6.00 Fog/Mist NULL 68.9 68.9 100% 29.86 0.0
08 06:15 NW 3 6.00 Fog/Mist NULL 68.9 68.9 100% 29.88 0.0
08 05:55 NW 5 7.00 NULL NULL 68.7 68.7 100% 29.86 0.0
08 05:35 N 5 6.00 Fog/Mist NULL 68.5 68.5 100% 29.85 0.0
08 05:15 NW 6 6.00 Fog/Mist NULL 68.5 68.5 100% 29.86 0.0
08 04:55 NW 5 4.00 Fog/Mist NULL 68.4 68.4 100% 29.85 0.0
08 04:35 N 10 2.50 Fog/Mist NULL 68.4 68.4 100% 29.84 0.0
08 04:15 N 5 3.00 Fog/Mist NULL 68.4 68.4 100% 29.86 0.0
08 03:55 N 6 3.00 Fog/Mist NULL 68.2 68.2 100% 29.86 0.0
08 03:35 N 7 4.00 Fog/Mist NULL 68.5 68.5 100% 29.86 0.0
08 03:15 N 7 3.00 Fog/Mist NULL 68.9 68.9 100% 29.87 0.0
08 02:55 NW 5 3.00 Fog/Mist NULL 69.4 69.4 100% 29.88 0.0
08 02:35 NW 5 3.00 Fog/Mist NULL 69.6 69.1 98% 29.89 0.0
08 02:15 NW 5 3.00 Fog/Mist NULL 69.4 68.4 96% 29.89 0.0
08 01:55 N 5 2.00 Fog/Mist NULL 69.6 68.2 95% 29.89 0.0
08 01:35 Calm 3.00 Fog/Mist NULL 70 68.5 95% 29.92 0.0
08 01:15 W 5 6.00 Fog/Mist NULL 70.2 68.4 94% 29.94 0.0
08 00:55 N 5 8.00 NULL NULL 70.3 68.5 94% 29.92 0.0
08 00:35 N 5 9.00 Overcast OVC010 70.7 68.5 93% 29.9 0.0
08 00:15 N 3 10.00 Overcast OVC011 70.5 68.4 93% 29.91 0.0
07 23:55 N 8 8.00 Overcast OVC010 70.7 68.2 92% 29.89 0.0
07 23:35 NE 10 8.00 NULL NULL 71.2 67.8 89% 29.88 0.0 0.01
07 23:15 NE 5 6.00 Light Rain NULL 71.8 66.6 84% 29.92 0.0 0.01
07 22:55 E 5 8.00 Light Rain OVC015 72.1 66.9 84% 29.92 0.0
07 22:35 E 10 10.00 Overcast OVC015 72.1 66.7 83% 29.89 0.0
07 22:15 E 10 10.00 Overcast OVC017 72.1 66.4 82% 29.87 0.0
07 21:55 E 8 10.00 Overcast OVC017 72.1 66 81% 29.87 0.0
07 21:35 NE 8 10.00 Overcast OVC019 72.5 66 80% 29.89 0.0
07 21:15 NE 10 10.00 Overcast OVC019 72.7 66.2 80% 29.9 0.0
07 20:55 NE 7 10.00 Overcast OVC019 73 66.2 79% 29.92 0.0
07 20:35 NE 10 10.00 Overcast OVC019 73.2 66.4 79% 29.9 0.0
07 20:15 NE 9 10.00 Mostly Cloudy BKN018 BKN033 73.6 66.7 79% 29.9 0.0
07 19:55 NE 10 10.00 Mostly Cloudy BKN018 BKN032 73 66.9 81% 29.88 0.0
07 19:35 NE 10 10.00 Overcast OVC019 73.4 66.7 80% 29.88 0.0
07 19:15 Calm 10.00 Overcast OVC019 73.8 66.9 79% 29.89 0.0
07 18:55 NE 12 10.00 Overcast OVC020 73.9 66.9 79% 29.88 0.0
07 18:35 Calm 10.00 Overcast OVC020 74.3 66.9 78% 29.88 0.0
07 18:15 NE 10 10.00 Overcast OVC021 74.5 67.1 78% 29.88 0.0
07 17:55 NE 7 10.00 Overcast OVC021 74.5 66.9 77% 29.88 0.0
07 17:35 NE 10 10.00 Overcast OVC021 74.3 66.7 77% 29.88 0.0
07 17:15 NE 10 10.00 Overcast OVC020 75.4 66.9 75% 77 29.87 0.0
07 16:55 NE 8 10.00 Overcast OVC020 76.1 66.9 73% 78 29.88 0.0
07 16:35 NE 9 10.00 Overcast OVC019 76.3 67.1 73% 78 29.88 0.0
07 16:15 NE 13 10.00 Overcast OVC019 75.2 66.4 74% 76 29.88 0.0
07 15:15 NE 9 10.00 Overcast OVC017 75.4 66.6 74% 77 29.9 0.0
07 14:55 NE 8 10.00 Overcast OVC017 74.1 66 76% 29.91 0.0
07 14:35 NE 12 10.00 Overcast OVC017 73.8 66.2 77% 29.92 0.0
07 14:15 NE 12 10.00 Overcast OVC017 73 65.7 78% 29.93 0.0
07 13:55 NE 13 10.00 Overcast OVC016 73.4 65.7 77% 29.94 0.0
07 13:35 NE 12 10.00 Overcast OVC017 73.6 66.2 78% 29.94 0.0
07 13:15 NE 12 9.00 Overcast OVC017 72.1 65.3 79% 29.95 0.0
07 12:55 NE 12 G 20 10.00 Overcast OVC017 72.7 65.3 78% 29.95 0.0
07 12:35 NE 15 10.00 Overcast OVC017 72.5 65.5 79% 29.96 0.0
07 12:15 NE 12 10.00 Overcast OVC016 72 65.1 79% 29.96 0.0
07 11:55 NE 10 10.00 Overcast OVC016 71.2 65.5 82% 29.96 0.0
07 11:35 N 10 10.00 Overcast OVC015 70.9 65.3 83% 29.96 0.0
07 11:15 NE 12 10.00 Overcast OVC014 70.5 65.1 83% 29.95 0.0
07 10:55 NE 13 9.00 Overcast OVC013 70.5 65.5 84% 29.94 0.0
07 10:35 NE 14 9.00 Overcast OVC013 70.3 65.7 85% 29.94 0.0
07 10:15 NE 15 8.00 Overcast OVC013 70.3 66 86% 29.93 0.0
07 09:55 NE 13 8.00 Overcast OVC012 70.3 66.2 87% 29.93 0.0
07 09:35 NE 13 8.00 Overcast OVC012 70.2 66 87% 29.93 0.0
07 09:15 NE 12 8.00 Overcast OVC011 70.3 66.2 87% 29.93 0.0
07 08:55 NE 14 8.00 Overcast OVC011 70.2 65.8 86% 29.92 0.0
07 08:35 NE 12 8.00 Overcast OVC012 70 66.6 89% 29.92 0.0
07 08:15 NE 8 8.00 Overcast OVC013 70.2 66 87% 29.91 0.0
07 07:55 NE 12 8.00 Overcast OVC012 70.3 66.6 88% 29.9 0.0
07 07:35 NE 13 8.00 Overcast OVC011 70.5 66.7 88% 29.89 0.0
07 07:15 N 13 7.00 Overcast OVC013 70.2 67.1 90% 29.88 0.0
07 06:55 NE 13 9.00 Overcast OVC012 70.3 67.1 90% 29.88 0.0
07 06:35 NE 12 9.00 Overcast OVC011 70.7 67.3 89% 29.87 0.0
07 06:15 NE 9 10.00 Overcast OVC011 70.7 66.9 88% 29.86 0.0
07 05:55 NE 12 10.00 Overcast OVC011 71.1 67.3 88% 29.85 0.0
07 05:35 NE 12 10.00 Overcast OVC011 71.2 67.5 88% 29.86 0.0
07 05:15 NE 13 10.00 Overcast OVC011 71.4 68 89% 29.86 0.0
07 04:55 N 17 10.00 NULL NULL 71.1 69.1 94% 29.83 0.0
07 04:35 NE 10 10.00 NULL NULL 71.4 70.2 96% 29.86 0.0
07 04:15 NE 12 7.00 Light Rain NULL 71.6 71.1 98% 29.86 0.0
07 03:55 NE 12 8.00 Light Rain NULL 73 72.1 97% 29.85 0.0
07 03:35 NE 7 3.00 Fog/Mist NULL 78.6 78.3 99% 82 29.84 0.0
07 03:15 NE 6 5.00 Fog/Mist NULL 78.6 78.4 99% 83 29.85 0.0
07 02:55 NE 5 3.00 Light Rain Fog/Mist NULL 78.6 78.1 98% 82 29.84 0.0
07 02:35 NE 3 4.00 Light Rain Fog/Mist NULL 78.6 78.1 98% 82 29.84 0.0
07 02:15 NE 5 6.00 Fog/Mist NULL 78.6 78.1 98% 82 29.84 0.0
07 01:55 NE 5 7.00 NULL NULL 78.8 78.3 98% 83 29.84 0.0
07 01:35 NE 6 9.00 NULL NULL 78.8 78.3 98% 83 29.84 0.0
07 01:15 E 6 10.00 NULL NULL 79 78.3 98% 84 29.84 0.0
07 00:55 E 5 9.00 NULL NULL 79 78.3 98% 84 29.84 0.0
07 00:35 E 3 10.00 NULL NULL 78.8 78.3 98% 83 29.84 0.0
07 00:15 E 6 10.00 NULL NULL 78.6 78.4 99% 83 29.84 0.0
06 23:55 E 5 10.00 NULL NULL 78.6 78.6 100% 83 29.84 0.0
06 23:35 NE 6 10.00 NULL NULL 78.3 78.3 100% 81 29.84 0.0
06 23:15 NE 6 10.00 NULL NULL 77.7 77.7 100% 80 29.83 0.0
06 22:55 NE 5 10.00 NULL NULL 78.1 76.3 94% 81 29.83 0.0
06 22:35 E 5 10.00 NULL NULL 78.4 76.6 94% 82 29.82 0.0
06 22:15 E 5 10.00 Fair CLR 79 76.8 93% 83 29.81 0.0
06 21:55 NE 6 10.00 Fair CLR 79.5 77.4 93% 85 29.8 0.0
06 21:35 E 6 10.00 Fair CLR 80.2 77.9 93% 87 29.79 0.0
06 21:15 E 7 10.00 Fair CLR 80.8 77.9 91% 88 29.78 0.0
06 20:55 E 8 10.00 Fair CLR 81.3 77.9 89% 89 29.77 0.0
06 20:35 E 7 10.00 Fair CLR 82.2 78.3 88% 92 29.76 0.0
06 20:15 E 8 10.00 Fair CLR 83.1 78.4 86% 94 29.75 0.0
06 19:55 E 10 10.00 Fair CLR 84.4 78.6 83% 96 29.73 0.0
06 19:35 E 8 10.00 Fair CLR 85.5 79 81% 99 29.73 0.0
06 19:15 E 9 10.00 Fair CLR 86.4 79.2 79% 100 29.72 0.0
06 18:55 E 10 10.00 Fair CLR 88.2 79.3 75% 104 29.71 0.0
06 18:35 E 10 10.00 Fair CLR 87.6 79.2 76% 103 29.7 0.0
06 18:15 E 9 10.00 A Few Clouds FEW027 90 79.3 71% 107 29.7 0.0
06 17:55 E 10 10.00 A Few Clouds FEW031 91.4 79.3 68% 109 29.69 0.0
06 17:35 NE 10 10.00 A Few Clouds FEW032 91.8 79 66% 109 29.69 0.0
06 17:15 E 8 10.00 A Few Clouds FEW033 93.6 79 63% 111 29.69 0.0
06 16:55 NE 6 10.00 Fair CLR 93.6 78.3 61% 110 29.7 0.0
06 16:35 NE 6 10.00 Fair CLR 90.3 79.2 70% 107 29.7 0.0
06 16:15 N 8 10.00 A Few Clouds FEW350 93.2 78.8 63% 110 29.7 0.0
06 15:55 NE 8 10.00 A Few Clouds FEW350 92.5 79.2 65% 110 29.71 0.0
06 15:35 NE 10 10.00 Fair CLR 93.2 78.1 62% 109 29.71 0.0
06 15:15 E 5 9.00 A Few Clouds FEW350 92.3 77.5 62% 107 29.72 0.0
06 14:55 NE 3 10.00 A Few Clouds FEW350 91.4 77.9 65% 106 29.73 0.0
06 14:35 NE 3 10.00 Fair CLR 91 77.9 65% 106 29.73 0.0
06 14:15 N 5 10.00 Fair CLR 91.6 77.4 63% 106 29.74 0.0
06 13:55 Calm 10.00 Fair CLR 90.3 77.5 66% 104 29.74 0.0
06 13:35 S 7 9.00 Fair CLR 90 77 66% 103 29.74 0.0
06 13:15 SE 7 10.00 Partly Cloudy FEW290 SCT350 90.7 77.2 65% 104 29.75 0.0
06 12:55 Vrbl 7 10.00 A Few Clouds FEW300 89.4 76.8 66% 102 29.75 0.0
06 12:35 Vrbl 3 10.00 Fair CLR 86.9 76.5 71% 98 29.76 0.0
06 12:15 SW 7 10.00 Partly Cloudy FEW025 SCT340 88.5 76.6 68% 100 29.76 0.0
06 11:55 SE 6 10.00 Partly Cloudy SCT022 SCT350 88.2 77.7 71% 101 29.75 0.0
06 11:35 S 7 10.00 Partly Cloudy FEW024 SCT370 85.8 76.6 74% 96 29.75 0.0
06 11:15 S 7 9.00 A Few Clouds FEW015 83.1 77.4 83% 93 29.75 0.0
06 10:55 S 14 9.00 Mostly Cloudy SCT015 BKN360 81.9 76.8 85% 90 29.75 0.0
06 10:35 S 15 7.00 Mostly Cloudy BKN014 81.1 76.6 86% 88 29.76 0.0
06 10:15 SE 14 7.00 Mostly Cloudy BKN013 80.6 76.6 88% 87 29.75 0.0
06 09:55 S 13 7.00 Mostly Cloudy BKN013 80.2 76.8 89% 86 29.75 0.0
06 09:35 SE 9 7.00 NULL NULL 79.2 76.6 92% 84 29.75 0.0
06 09:15 SE 6 7.00 NULL NULL 78.8 76.8 94% 83 29.75 0.0
06 08:55 SE 6 6.00 Fog/Mist NULL 78.1 76.3 94% 81 29.75 0.0
06 08:35 E 6 6.00 Fog/Mist NULL 78.1 75.9 93% 81 29.75 0.0
06 08:15 SE 7 8.00 NULL NULL 78.3 75.7 92% 81 29.75 0.0
06 07:55 E 6 8.00 Mostly Cloudy BKN018 78.4 75.9 92% 82 29.75 0.0
06 07:35 E 6 8.00 Partly Cloudy SCT020 78.1 76.1 94% 81 29.74 0.0
06 07:15 E 6 8.00 Partly Cloudy SCT021 77.5 75.9 95% 79 29.73 0.0
06 06:55 E 5 8.00 A Few Clouds FEW024 77.5 75.7 94% 79 29.72 0.0
06 06:35 E 5 10.00 A Few Clouds FEW016 77.5 75.7 94% 79 29.72 0.0
06 06:15 E 5 10.00 A Few Clouds FEW016 78.3 75 90% 81 29.71 0.0
06 05:55 NE 6 10.00 Fair CLR 78.4 75.2 90% 82 29.71 0.0
06 05:35 E 3 8.00 Fair CLR 78.6 75.2 89% 82 29.7 0.0
06 05:15 E 5 7.00 Fair CLR 78.8 75.2 89% 82 29.71 0.0
06 04:55 SE 5 8.00 Fair CLR 78.8 75.2 89% 82 29.7 0.0
06 04:35 SE 7 8.00 Fair CLR 78.8 75.2 89% 82 29.7 0.0
06 04:15 SE 9 8.00 A Few Clouds FEW015 78.8 75.2 89% 82 29.7 0.0
06 03:55 S 7 9.00 A Few Clouds FEW016 78.8 75.2 89% 82 29.7 0.0
06 03:35 S 8 9.00 A Few Clouds FEW015 78.6 75.2 89% 82 29.69 0.0
06 03:15 S 10 10.00 A Few Clouds FEW016 78.8 75.2 89% 82 29.7 0.0
06 02:55 SE 13 10.00 Partly Cloudy SCT016 SCT024 78.8 75 88% 82 29.7 0.0
06 02:35 SE 9 10.00 Mostly Cloudy BKN016 BKN027 78.8 75 88% 82 29.7 0.0
06 02:15 SE 8 10.00 Mostly Cloudy SCT015 BKN028 79 75 88% 83 29.7 0.0
06 01:55 SE 13 10.00 Mostly Cloudy BKN016 BKN022 BKN029 79 75.2 88% 83 29.7 0.0
06 01:35 SE 12 10.00 Mostly Cloudy BKN016 BKN023 78.8 75.2 89% 82 29.71 0.0
06 00:55 SE 7 10.00 Partly Cloudy SCT029 78.6 75.7 91% 82 29.73 0.0
06 00:35 SE 8 10.00 Mostly Cloudy BKN027 78.6 75.7 91% 82 29.72 0.0
06 00:15 SE 7 10.00 Overcast OVC023 77.9 75.7 93% 80 29.73 0.0
05 23:55 SE 8 10.00 Mostly Cloudy BKN020 77.9 75.6 93% 80 29.73 0.0
05 23:35 SE 8 10.00 Fair CLR 77.7 75.7 94% 80 29.73 0.0
05 23:15 SE 9 10.00 Fair CLR 77.9 75.7 93% 80 29.73 0.0
05 22:55 SE 9 10.00 Fair CLR 78.1 75.6 92% 81 29.73 0.0
05 22:35 SE 8 10.00 Fair CLR 78.4 75.7 91% 82 29.72 0.0
05 22:15 SE 13 10.00 Fair CLR 78.8 75.6 90% 82 29.71 0.0
05 21:55 SE 10 10.00 Fair CLR 79.2 75.6 89% 83 29.71 0.0
05 21:35 SE 10 10.00 Fair CLR 79.7 75.6 87% 84 29.7 0.0
05 21:15 SE 10 G 21 10.00 Fair CLR 80.2 75.4 85% 86 29.69 0.0
05 20:55 SE 10 10.00 Fair CLR 81 75.4 83% 87 29.68 0.0
05 20:35 SE 13 G 21 10.00 Fair CLR 81.9 75.6 81% 89 29.67 0.0
05 20:15 SE 12 10.00 Fair CLR 82.8 75.7 79% 91 29.66 0.0
05 19:55 Calm 10.00 Fair CLR 84 75.7 76% 93 29.65 0.0
05 19:35 SE 10 G 21 9.00 Fair CLR 85.1 75.9 74% 95 29.65 0.0
05 19:15 SE 13 9.00 Fair CLR 86.5 75.9 71% 97 29.64 0.0
05 18:55 SE 14 G 22 10.00 A Few Clouds FEW047 88.5 75.9 66% 100 29.63 0.0
05 18:35 SE 14 10.00 A Few Clouds FEW049 90.1 75.9 63% 102 29.63 0.0
05 18:15 SE 10 10.00 Fair CLR 91.6 76.1 61% 104 29.62 0.0
05 17:55 SE 13 10.00 Fair CLR 93.2 72.7 51% 102 29.62 0.0
05 17:35 SE 13 G 22 10.00 Fair CLR 93.7 72 49% 102 29.62 0.0
05 17:15 S 12 G 20 10.00 Fair CLR 94.1 72 49% 102 29.63 0.0
05 16:55 SE 17 G 22 10.00 Fair CLR 93.6 72.9 51% 103 29.63 0.0
05 16:35 S 14 G 23 10.00 Fair CLR 94.1 72.5 50% 103 29.64 0.0
05 16:15 S 14 10.00 Fair CLR 94.3 72.5 49% 103 29.65 0.0
05 15:55 S 14 G 20 10.00 Fair CLR 94.3 72.3 49% 103 29.66 0.0
05 15:35 S 12 G 22 10.00 Fair CLR 94.1 72.5 50% 103 29.67 0.0
05 15:15 S 13 10.00 A Few Clouds FEW049 93.6 72.7 51% 102 29.68 0.0
05 14:55 S 14 G 18 10.00 Partly Cloudy SCT049 93.2 72.1 50% 101 29.68 0.0
05 14:35 SE 14 G 21 10.00 A Few Clouds FEW049 92.7 72.3 52% 101 29.69 0.0
05 14:15 SE 16 G 20 10.00 A Few Clouds FEW046 92.8 72.3 51% 101 29.7 0.0
05 13:55 SE 14 G 22 10.00 Mostly Cloudy SCT045 SCT300 SCT340 BKN370 91.6 73 55% 100 29.7 0.0
05 13:35 S 15 G 25 10.00 Partly Cloudy FEW043 SCT340 SCT370 91.6 72.3 53% 100 29.71 0.0
05 13:15 S 17 G 24 10.00 Partly Cloudy SCT041 90.3 73 57% 99 29.72 0.0
05 12:55 S 16 10.00 Partly Cloudy SCT039 90.1 72.9 57% 98 29.72 0.0
05 12:35 S 15 G 24 10.00 A Few Clouds FEW037 89.6 73.2 59% 98 29.73 0.0
05 12:15 S 14 G 21 10.00 A Few Clouds FEW035 88.7 73.2 60% 97 29.74 0.0
05 11:55 SE 16 10.00 Partly Cloudy SCT032 88 73.4 62% 96 29.74 0.0
05 11:35 S 15 G 22 10.00 A Few Clouds FEW031 87.1 73.6 64% 95 29.75 0.0
05 11:15 S 12 G 21 10.00 A Few Clouds FEW030 86.4 73.8 66% 94 29.75 0.0
Date Time (cdt) Wind (mph) Vis. (mi.) Weather Sky Cond. Air Dwpt Max. Min. Relative Humidity Wind Chill (°F) Heat Index (°F) altimeter (in) sea level (mb) 1 hr 3 hr 6 hr
6 hour
Temperature (ºF) Pressure Precipitation (in)